createdAt,value
2019-04-04T00:00:53.047Z,54.94
2019-04-04T00:01:53.107Z,55.35
2019-04-04T00:02:53.003Z,55.55
2019-04-04T00:03:52.989Z,54.94
2019-04-04T00:04:53.016Z,53.93
2019-04-04T00:05:53.041Z,53.59
2019-04-04T00:06:52.965Z,54.13
2019-04-04T00:07:53.023Z,55.15
2019-04-04T00:08:52.937Z,56.16
2019-04-04T00:09:52.925Z,55.05
2019-04-04T00:10:52.909Z,55.25
2019-04-04T00:11:52.944Z,54.85
2019-04-04T00:12:52.893Z,54.85
2019-04-04T00:13:52.903Z,54.94
2019-04-04T00:14:52.899Z,55.05
2019-04-04T00:15:52.865Z,55.76
2019-04-04T00:16:52.870Z,53.52
2019-04-04T00:17:53.805Z,54.24
2019-04-04T00:18:52.827Z,53.32
2019-04-04T00:19:52.809Z,53.72
2019-04-04T00:20:52.806Z,53.52
2019-04-04T00:21:52.821Z,53.11
2019-04-04T00:22:52.781Z,54.74
2019-04-04T00:23:52.784Z,56.09
2019-04-04T00:24:52.753Z,54.94
2019-04-04T00:25:52.804Z,53.65
2019-04-04T00:26:52.757Z,53.93
2019-04-04T00:27:52.724Z,53.52
2019-04-04T00:28:52.706Z,53.52
2019-04-04T00:29:52.700Z,53.52
2019-04-04T00:30:52.691Z,54.05
2019-04-04T00:31:52.704Z,53.96
2019-04-04T00:32:53.326Z,54.97
2019-04-04T00:33:53.884Z,56.20
2019-04-04T00:34:52.649Z,55.38
2019-04-04T00:35:52.638Z,53.85
2019-04-04T00:36:52.656Z,53.65
2019-04-04T00:37:52.617Z,55.07
2019-04-04T00:38:52.613Z,54.97
2019-04-04T00:39:52.590Z,55.07
2019-04-04T00:40:52.579Z,55.79
2019-04-04T00:41:52.561Z,54.97
2019-04-04T00:42:52.577Z,54.16
2019-04-04T00:43:52.539Z,53.96
2019-04-04T00:44:53.906Z,54.87
2019-04-04T00:45:52.526Z,56.22
2019-04-04T00:46:52.524Z,54.90
2019-04-04T00:47:52.518Z,56.09
2019-04-04T00:48:52.503Z,54.28
2019-04-04T00:49:52.479Z,53.57
2019-04-04T00:50:52.472Z,55.30
2019-04-04T00:51:52.458Z,55.81
2019-04-04T00:52:52.474Z,54.79
2019-04-04T00:53:52.436Z,55.51
2019-04-04T00:54:52.421Z,55.81
2019-04-04T00:55:52.409Z,54.90
2019-04-04T00:56:52.400Z,55.00
2019-04-04T00:57:52.416Z,55.20
2019-04-04T00:58:52.582Z,55.10
2019-04-04T00:59:53.591Z,55.00
2019-04-04T01:00:52.942Z,56.02
2019-04-04T01:01:52.341Z,55.51
2019-04-04T01:02:52.362Z,55.10
2019-04-04T01:03:52.317Z,55.20
2019-04-04T01:04:52.349Z,55.00
2019-04-04T01:05:52.318Z,55.74
2019-04-04T01:06:52.294Z,55.74
2019-04-04T01:07:52.302Z,55.63
2019-04-04T01:08:52.324Z,55.94
2019-04-04T01:09:52.255Z,56.15
2019-04-04T01:10:52.260Z,55.43
2019-04-04T01:11:52.227Z,55.84
2019-04-04T01:12:52.733Z,55.33
2019-04-04T01:13:52.247Z,55.33
2019-04-04T01:14:52.195Z,55.84
2019-04-04T01:15:52.188Z,55.13
2019-04-04T01:16:52.169Z,55.63
2019-04-04T01:17:52.162Z,55.63
2019-04-04T01:18:52.174Z,55.33
2019-04-04T01:19:52.157Z,55.43
2019-04-04T01:20:52.124Z,55.97
2019-04-04T01:21:53.329Z,55.76
2019-04-04T01:22:52.117Z,56.17
2019-04-04T01:23:52.090Z,55.56
2019-04-04T01:24:52.079Z,55.66
2019-04-04T01:25:52.081Z,56.58
2019-04-04T01:26:52.091Z,55.46
2019-04-04T01:27:52.050Z,57.09
2019-04-04T01:28:52.037Z,57.50
2019-04-04T01:29:52.022Z,57.90
2019-04-04T01:30:52.017Z,57.19
2019-04-04T01:31:52.053Z,55.87
2019-04-04T01:32:51.994Z,56.99
2019-04-04T01:33:51.984Z,55.56
2019-04-04T01:34:52.701Z,57.19
2019-04-04T01:35:54.054Z,56.17
2019-04-04T01:36:51.948Z,56.07
2019-04-04T01:37:51.960Z,56.48
2019-04-04T01:38:51.921Z,56.27
2019-04-04T01:39:51.913Z,55.35
2019-04-04T01:40:54.801Z,57.19
2019-04-04T01:41:51.946Z,57.09
2019-04-04T01:42:51.876Z,56.71
2019-04-04T01:44:04.349Z,55.87
2019-04-04T01:44:52.854Z,55.69
2019-04-04T01:45:51.841Z,56.17
2019-04-04T01:46:51.835Z,56.30
2019-04-04T01:47:51.853Z,57.01
2019-04-04T01:48:51.844Z,57.32
2019-04-04T01:49:52.443Z,55.79
2019-04-04T01:50:53.398Z,56.30
2019-04-04T01:51:51.780Z,57.21
2019-04-04T01:52:51.826Z,56.78
2019-04-04T01:53:51.758Z,57.12
2019-04-04T01:54:51.786Z,57.01
2019-04-04T01:55:51.727Z,56.20
2019-04-04T01:56:51.717Z,56.50
2019-04-04T01:57:51.714Z,56.30
2019-04-04T01:58:51.733Z,56.30
2019-04-04T01:59:51.685Z,56.10
2019-04-04T02:00:51.675Z,56.91
2019-04-04T02:01:51.658Z,58.14
2019-04-04T02:02:51.831Z,57.12
2019-04-04T02:03:51.822Z,57.21
2019-04-04T02:04:51.646Z,57.21
2019-04-04T02:05:51.619Z,57.62
2019-04-04T02:06:51.603Z,57.73
2019-04-04T02:07:51.596Z,58.34
2019-04-04T02:08:51.593Z,57.12
2019-04-04T02:09:51.602Z,58.14
2019-04-04T02:10:51.569Z,57.01
2019-04-04T02:11:51.562Z,57.01
2019-04-04T02:12:51.543Z,57.32
2019-04-04T02:13:51.526Z,57.01
2019-04-04T02:14:51.514Z,56.53
2019-04-04T02:15:51.528Z,56.91
2019-04-04T02:16:51.666Z,56.84
2019-04-04T02:17:52.978Z,57.24
2019-04-04T02:18:53.541Z,57.24
2019-04-04T02:19:51.460Z,57.14
2019-04-04T02:20:51.496Z,56.53
2019-04-04T02:21:51.441Z,56.94
2019-04-04T02:22:51.430Z,57.86
2019-04-04T02:23:51.410Z,57.34
2019-04-04T02:24:51.403Z,57.17
2019-04-04T02:25:51.446Z,57.04
2019-04-04T02:26:51.411Z,57.37
2019-04-04T02:27:51.363Z,57.14
2019-04-04T02:28:51.355Z,57.17
2019-04-04T02:29:51.346Z,57.34
2019-04-04T02:30:51.404Z,57.68
2019-04-04T02:31:53.561Z,57.98
2019-04-04T02:32:51.326Z,58.19
2019-04-04T02:33:51.344Z,58.09
2019-04-04T02:34:51.289Z,57.57
2019-04-04T02:35:51.294Z,57.98
2019-04-04T02:36:51.307Z,57.68
2019-04-04T02:37:55.050Z,58.80
2019-04-04T02:38:51.239Z,58.39
2019-04-04T02:39:51.233Z,58.60
2019-04-04T02:40:51.235Z,58.80
2019-04-04T02:41:51.211Z,57.88
2019-04-04T02:42:53.947Z,57.27
2019-04-04T02:43:51.183Z,57.27
2019-04-04T02:44:51.176Z,57.88
2019-04-04T02:45:51.175Z,58.60
2019-04-04T02:46:51.195Z,57.57
2019-04-04T02:47:51.467Z,58.09
2019-04-04T02:48:51.134Z,58.09
2019-04-04T02:49:51.122Z,57.48
2019-04-04T02:50:51.108Z,57.17
2019-04-04T02:51:51.124Z,58.09
2019-04-04T02:52:51.131Z,58.39
2019-04-04T02:53:52.899Z,58.80
2019-04-04T02:54:51.064Z,58.29
2019-04-04T02:55:51.060Z,58.19
2019-04-04T02:56:51.053Z,58.32
2019-04-04T02:57:51.066Z,58.09
2019-04-04T02:58:51.021Z,58.29
2019-04-04T02:59:53.281Z,58.73
2019-04-04T03:00:50.998Z,58.80
2019-04-04T03:01:50.982Z,58.70
2019-04-04T03:02:50.998Z,58.83
2019-04-04T03:03:50.977Z,58.22
2019-04-04T03:04:50.948Z,57.09
2019-04-04T03:05:52.113Z,58.32
2019-04-04T03:06:50.934Z,58.73
2019-04-04T03:07:50.939Z,58.93
2019-04-04T03:08:50.908Z,58.42
2019-04-04T03:09:50.896Z,58.93
2019-04-04T03:10:50.888Z,59.14
2019-04-04T03:11:53.531Z,58.11
2019-04-04T03:12:50.859Z,58.93
2019-04-04T03:13:50.860Z,58.42
2019-04-04T03:14:51.046Z,58.73
2019-04-04T03:15:50.847Z,58.52
2019-04-04T03:16:50.894Z,58.73
2019-04-04T03:17:50.812Z,58.22
2019-04-04T03:18:50.820Z,58.62
2019-04-04T03:19:50.809Z,58.11
2019-04-04T03:20:50.849Z,58.22
2019-04-04T03:21:54.775Z,58.32
2019-04-04T03:22:51.779Z,58.42
2019-04-04T03:23:50.770Z,58.73
2019-04-04T03:24:50.728Z,58.65
2019-04-04T03:25:50.719Z,58.75
2019-04-04T03:26:52.623Z,58.75
2019-04-04T03:27:50.694Z,58.65
2019-04-04T03:28:50.759Z,58.75
2019-04-04T03:29:50.666Z,58.86
2019-04-04T03:31:00.933Z,58.55
2019-04-04T03:31:51.645Z,58.55
2019-04-04T03:32:54.201Z,58.86
2019-04-04T03:33:50.628Z,58.34
2019-04-04T03:34:51.768Z,58.75
2019-04-04T03:35:50.607Z,59.06
2019-04-04T03:36:50.594Z,58.86
2019-04-04T03:37:50.585Z,58.75
2019-04-04T03:38:50.577Z,58.86
2019-04-04T03:39:53.123Z,58.65
2019-04-04T03:40:50.544Z,58.45
2019-04-04T03:41:50.538Z,58.86
2019-04-04T03:42:50.528Z,58.55
2019-04-04T03:43:50.517Z,58.86
2019-04-04T03:44:53.522Z,58.65
2019-04-04T03:45:50.522Z,58.75
2019-04-04T03:46:50.497Z,58.55
2019-04-04T03:47:50.476Z,58.75
2019-04-04T03:48:51.163Z,58.45
2019-04-04T03:49:50.451Z,58.75
2019-04-04T03:50:50.464Z,58.55
2019-04-04T03:51:50.434Z,59.19
2019-04-04T03:52:50.419Z,58.58
2019-04-04T03:53:50.432Z,58.58
2019-04-04T03:54:55.230Z,58.78
2019-04-04T03:55:51.422Z,59.27
2019-04-04T03:56:50.404Z,58.75
2019-04-04T03:57:51.878Z,59.30
2019-04-04T03:58:50.347Z,58.78
2019-04-04T03:59:50.364Z,59.19
2019-04-04T04:00:50.344Z,58.98
2019-04-04T04:01:50.346Z,58.89
2019-04-04T04:02:50.957Z,58.68
2019-04-04T04:03:52.516Z,59.19
2019-04-04T04:04:50.285Z,58.78
2019-04-04T04:05:50.268Z,58.89
2019-04-04T04:06:50.319Z,58.98
2019-04-04T04:07:50.254Z,58.78
2019-04-04T04:08:53.629Z,59.30
2019-04-04T04:09:50.221Z,59.60
2019-04-04T04:10:50.229Z,58.89
2019-04-04T04:11:50.220Z,58.98
2019-04-04T04:12:50.244Z,59.50
2019-04-04T04:13:50.249Z,59.12
2019-04-04T04:14:53.837Z,58.91
2019-04-04T04:15:50.168Z,58.70
2019-04-04T04:16:50.144Z,59.91
2019-04-04T04:17:50.171Z,59.94
2019-04-04T04:18:54.162Z,59.22
2019-04-04T04:19:51.111Z,59.70
2019-04-04T04:20:50.123Z,59.53
2019-04-04T04:21:50.089Z,59.39
2019-04-04T04:22:50.898Z,58.91
2019-04-04T04:23:50.155Z,59.73
2019-04-04T04:24:50.063Z,59.22
2019-04-04T04:25:50.055Z,59.22
2019-04-04T04:26:50.046Z,59.53
2019-04-04T04:27:50.030Z,60.03
2019-04-04T04:28:53.087Z,59.83
2019-04-04T04:29:50.031Z,59.63
2019-04-04T04:30:50.002Z,59.42
2019-04-04T04:31:49.990Z,59.42
2019-04-04T04:32:49.966Z,60.03
2019-04-04T04:33:49.964Z,60.24
2019-04-04T04:34:49.989Z,59.96
2019-04-04T04:35:49.950Z,59.53
2019-04-04T04:36:49.944Z,59.63
2019-04-04T04:37:53.431Z,60.27
2019-04-04T04:38:49.911Z,59.86
2019-04-04T04:39:49.945Z,60.37
2019-04-04T04:40:49.896Z,60.37
2019-04-04T04:41:52.977Z,59.96
2019-04-04T04:42:49.862Z,59.66
2019-04-04T04:43:49.882Z,59.76
2019-04-04T04:44:49.858Z,60.03
2019-04-04T04:45:49.837Z,59.83
2019-04-04T04:46:50.976Z,59.83
2019-04-04T04:47:49.808Z,60.14
2019-04-04T04:48:49.792Z,59.83
2019-04-04T04:49:49.829Z,59.32
2019-04-04T04:50:49.794Z,60.14
2019-04-04T04:51:49.764Z,59.96
2019-04-04T04:52:49.765Z,59.42
2019-04-04T04:53:50.660Z,59.63
2019-04-04T04:54:49.736Z,59.63
2019-04-04T04:55:49.783Z,60.06
2019-04-04T04:56:49.712Z,60.03
2019-04-04T04:57:49.694Z,60.58
2019-04-04T04:58:50.422Z,59.86
2019-04-04T04:59:49.673Z,59.96
2019-04-04T05:00:49.659Z,59.96
2019-04-04T05:01:50.670Z,59.96
2019-04-04T05:02:52.773Z,59.96
2019-04-04T05:03:50.813Z,60.03
2019-04-04T05:04:49.624Z,60.27
2019-04-04T05:05:49.602Z,60.17
2019-04-04T05:06:49.618Z,60.27
2019-04-04T05:07:49.605Z,60.27
2019-04-04T05:08:49.576Z,60.47
2019-04-04T05:09:49.561Z,60.17
2019-04-04T05:10:49.550Z,60.27
2019-04-04T05:11:50.347Z,60.85
2019-04-04T05:12:52.839Z,59.86
2019-04-04T05:13:49.574Z,60.37
2019-04-04T05:14:49.508Z,60.06
2019-04-04T05:15:49.486Z,60.06
2019-04-04T05:16:49.481Z,60.06
2019-04-04T05:17:49.518Z,60.06
2019-04-04T05:18:49.494Z,60.17
2019-04-04T05:19:50.139Z,60.37
2019-04-04T05:20:49.437Z,60.37
2019-04-04T05:21:49.427Z,60.78
2019-04-04T05:22:49.423Z,59.96
2019-04-04T05:23:49.448Z,60.68
2019-04-04T05:25:06.874Z,60.88
2019-04-04T05:25:53.983Z,60.99
2019-04-04T05:26:49.370Z,60.78
2019-04-04T05:27:49.388Z,60.47
2019-04-04T05:28:49.365Z,60.68
2019-04-04T05:29:49.365Z,60.99
2019-04-04T05:30:49.388Z,60.78
2019-04-04T05:31:50.053Z,62.01
2019-04-04T05:32:51.773Z,61.60
2019-04-04T05:33:49.306Z,60.68
2019-04-04T05:34:49.283Z,60.37
2019-04-04T05:35:49.273Z,60.65
2019-04-04T05:36:49.290Z,60.27
2019-04-04T05:37:49.245Z,60.88
2019-04-04T05:38:49.235Z,60.58
2019-04-04T05:39:51.351Z,60.58
2019-04-04T05:40:49.246Z,60.68
2019-04-04T05:41:49.240Z,60.37
2019-04-04T05:42:49.233Z,60.17
2019-04-04T05:43:49.182Z,61.09
2019-04-04T05:44:49.272Z,61.29
2019-04-04T05:45:49.163Z,60.37
2019-04-04T05:46:51.157Z,61.09
2019-04-04T05:47:49.127Z,60.68
2019-04-04T05:48:49.127Z,60.78
2019-04-04T05:49:49.158Z,60.99
2019-04-04T05:50:49.117Z,60.58
2019-04-04T05:51:49.160Z,60.78
2019-04-04T05:52:49.104Z,60.88
2019-04-04T05:53:49.093Z,60.47
2019-04-04T05:54:49.144Z,60.47
2019-04-04T05:55:49.045Z,60.78
2019-04-04T05:56:49.683Z,60.99
2019-04-04T05:57:50.974Z,61.40
2019-04-04T05:58:49.017Z,61.29
2019-04-04T05:59:49.066Z,60.88
2019-04-04T06:00:49.001Z,60.78
2019-04-04T06:01:49.011Z,60.88
2019-04-04T06:02:48.976Z,60.78
2019-04-04T06:03:48.954Z,60.37
2019-04-04T06:04:51.338Z,60.44
2019-04-04T06:05:48.957Z,60.58
2019-04-04T06:06:48.920Z,60.65
2019-04-04T06:07:48.918Z,60.55
2019-04-04T06:08:48.903Z,60.75
2019-04-04T06:09:48.885Z,60.03
2019-04-04T06:10:50.110Z,60.14
2019-04-04T06:11:50.786Z,60.65
2019-04-04T06:12:48.855Z,60.44
2019-04-04T06:13:48.864Z,60.35
2019-04-04T06:14:48.838Z,60.35
2019-04-04T06:15:48.854Z,60.44
2019-04-04T06:16:48.863Z,60.65
2019-04-04T06:17:48.802Z,60.96
2019-04-04T06:18:49.235Z,59.91
2019-04-04T06:19:48.809Z,60.31
2019-04-04T06:20:49.082Z,59.80
2019-04-04T06:21:49.975Z,59.80
2019-04-04T06:22:50.021Z,60.01
2019-04-04T06:23:48.766Z,59.50
2019-04-04T06:24:48.719Z,59.70
2019-04-04T06:25:48.715Z,59.60
2019-04-04T06:26:48.710Z,59.70
2019-04-04T06:27:48.757Z,59.98
2019-04-04T06:28:48.672Z,59.91
2019-04-04T06:29:48.669Z,60.28
2019-04-04T06:30:48.663Z,59.98
2019-04-04T06:31:48.638Z,60.08
2019-04-04T06:32:48.663Z,59.67
2019-04-04T06:33:48.625Z,59.47
2019-04-04T06:34:48.632Z,59.88
2019-04-04T06:35:48.603Z,59.57
2019-04-04T06:36:49.099Z,59.37
2019-04-04T06:37:49.144Z,60.28
2019-04-04T06:38:49.961Z,60.08
2019-04-04T06:39:48.553Z,59.67
2019-04-04T06:40:48.544Z,59.47
2019-04-04T06:41:48.538Z,59.64
2019-04-04T06:42:48.577Z,59.23
2019-04-04T06:43:48.530Z,59.34
2019-04-04T06:44:48.507Z,58.52
2019-04-04T06:45:48.490Z,58.52
2019-04-04T06:46:48.502Z,58.62
2019-04-04T06:47:48.470Z,59.03
2019-04-04T06:48:48.479Z,59.14
2019-04-04T06:49:48.474Z,58.80
2019-04-04T06:50:48.435Z,58.70
2019-04-04T06:51:48.434Z,58.60
2019-04-04T06:52:50.453Z,57.98
2019-04-04T06:53:48.419Z,58.29
2019-04-04T06:54:48.434Z,58.09
2019-04-04T06:55:48.384Z,57.88
2019-04-04T06:56:48.365Z,57.37
2019-04-04T06:57:51.134Z,57.17
2019-04-04T06:58:48.404Z,58.26
2019-04-04T06:59:51.010Z,57.14
2019-04-04T07:00:49.893Z,57.75
2019-04-04T07:01:50.014Z,57.45
2019-04-04T07:02:48.299Z,57.96
2019-04-04T07:03:48.290Z,57.24
2019-04-04T07:04:48.309Z,57.55
2019-04-04T07:05:48.338Z,57.21
2019-04-04T07:06:48.252Z,57.34
2019-04-04T07:07:48.250Z,57.83
2019-04-04T07:08:48.235Z,56.20
2019-04-04T07:09:50.250Z,56.50
2019-04-04T07:10:57.465Z,57.12
2019-04-04T07:11:49.223Z,56.30
2019-04-04T07:12:49.014Z,57.01
2019-04-04T07:13:48.168Z,56.50
2019-04-04T07:14:49.528Z,56.30
2019-04-04T07:16:03.431Z,55.58
2019-04-04T07:16:49.279Z,56.48
2019-04-04T07:17:48.127Z,55.46
2019-04-04T07:18:48.110Z,56.17
2019-04-04T07:19:48.098Z,56.37
2019-04-04T07:20:48.900Z,56.58
2019-04-04T07:21:49.175Z,56.37
2019-04-04T07:22:48.115Z,55.35
2019-04-04T07:23:48.084Z,55.33
2019-04-04T07:24:48.042Z,55.94
2019-04-04T07:25:48.034Z,56.15
2019-04-04T07:26:48.091Z,55.84
2019-04-04T07:27:48.094Z,55.84
2019-04-04T07:28:50.119Z,55.00
2019-04-04T07:29:47.990Z,55.91
2019-04-04T07:30:48.008Z,55.61
2019-04-04T07:31:47.997Z,55.71
2019-04-04T07:32:47.959Z,55.00
2019-04-04T07:33:47.956Z,55.10
2019-04-04T07:34:47.958Z,54.46
2019-04-04T07:35:48.912Z,55.07
2019-04-04T07:36:49.182Z,55.07
2019-04-04T07:37:47.936Z,54.77
2019-04-04T07:38:47.900Z,55.07
2019-04-04T07:39:50.084Z,54.97
2019-04-04T07:40:47.886Z,53.85
2019-04-04T07:41:47.879Z,53.93
2019-04-04T07:42:48.116Z,54.57
2019-04-04T07:43:49.343Z,54.54
2019-04-04T07:44:47.825Z,54.94
2019-04-04T07:45:47.811Z,53.63
2019-04-04T07:46:47.800Z,54.13
2019-04-04T07:47:47.831Z,53.42
2019-04-04T07:48:51.294Z,54.03
2019-04-04T07:49:47.788Z,54.11
2019-04-04T07:50:47.771Z,53.50
2019-04-04T07:51:47.742Z,53.50
2019-04-04T07:52:47.739Z,53.39
2019-04-04T07:53:47.720Z,54.21
2019-04-04T07:54:47.732Z,53.39
2019-04-04T07:55:47.719Z,53.59
2019-04-04T07:56:48.880Z,53.47
2019-04-04T07:57:50.858Z,53.39
2019-04-04T07:58:47.660Z,53.90
2019-04-04T07:59:47.665Z,53.57
2019-04-04T08:00:47.671Z,53.47
2019-04-04T08:01:51.309Z,53.57
2019-04-04T08:02:47.626Z,53.55
2019-04-04T08:03:47.607Z,53.24
2019-04-04T08:04:47.616Z,53.55
2019-04-04T08:05:47.581Z,52.73
2019-04-04T08:06:47.569Z,52.94
2019-04-04T08:07:47.582Z,52.94
2019-04-04T08:08:47.586Z,52.73
2019-04-04T08:09:47.570Z,51.29
2019-04-04T08:10:47.531Z,51.31
2019-04-04T08:11:47.514Z,52.71
2019-04-04T08:12:47.515Z,52.81
2019-04-04T08:13:47.537Z,52.71
2019-04-04T08:14:47.503Z,52.51
2019-04-04T08:15:47.475Z,53.09
2019-04-04T08:16:47.459Z,52.10
2019-04-04T08:17:47.456Z,52.58
2019-04-04T08:18:47.459Z,51.87
2019-04-04T08:19:58.883Z,51.77
2019-04-04T08:20:48.416Z,51.26
2019-04-04T08:21:47.406Z,51.37
2019-04-04T08:22:47.427Z,51.77
2019-04-04T08:23:47.409Z,52.69
2019-04-04T08:24:47.374Z,52.89
2019-04-04T08:25:47.383Z,51.57
2019-04-04T08:26:47.348Z,52.69
2019-04-04T08:27:47.388Z,52.79
2019-04-04T08:28:47.329Z,52.18
2019-04-04T08:29:47.317Z,51.77
2019-04-04T08:30:47.311Z,50.56
2019-04-04T08:31:47.296Z,51.14
2019-04-04T08:32:47.278Z,51.67
2019-04-04T08:33:47.421Z,51.06
2019-04-04T08:34:47.260Z,52.18
2019-04-04T08:35:47.270Z,51.98
2019-04-04T08:36:47.261Z,52.69
2019-04-04T08:37:47.228Z,51.98
2019-04-04T08:38:47.241Z,51.57
2019-04-04T08:39:47.207Z,51.37
2019-04-04T08:40:47.220Z,53.30
2019-04-04T08:41:47.182Z,52.18
2019-04-04T08:42:47.178Z,52.10
2019-04-04T08:43:47.191Z,52.58
2019-04-04T08:44:47.174Z,52.38
2019-04-04T08:45:47.193Z,51.79
2019-04-04T08:46:47.137Z,52.18
2019-04-04T08:47:47.116Z,52.08
2019-04-04T08:48:47.114Z,51.57
2019-04-04T08:49:47.096Z,51.87
2019-04-04T08:50:47.103Z,51.16
2019-04-04T08:51:47.134Z,51.26
2019-04-04T08:52:47.062Z,52.28
2019-04-04T08:53:47.067Z,51.24
2019-04-04T08:54:47.034Z,51.24
2019-04-04T08:55:47.031Z,50.84
2019-04-04T08:56:47.016Z,50.93
2019-04-04T08:57:47.034Z,50.84
2019-04-04T08:58:47.021Z,51.85
2019-04-04T08:59:46.983Z,51.04
2019-04-04T09:00:46.969Z,50.93
2019-04-04T09:01:46.996Z,51.04
2019-04-04T09:02:46.948Z,51.01
2019-04-04T09:03:46.932Z,51.32
2019-04-04T09:04:46.924Z,50.60
2019-04-04T09:05:46.918Z,49.77
2019-04-04T09:06:46.927Z,50.40
2019-04-04T09:07:46.927Z,49.87
2019-04-04T09:08:46.884Z,50.48
2019-04-04T09:09:46.974Z,49.77
2019-04-04T09:10:46.861Z,49.67
2019-04-04T09:11:46.855Z,49.47
2019-04-04T09:12:46.879Z,49.44
2019-04-04T09:13:46.824Z,49.85
2019-04-04T09:14:46.820Z,49.75
2019-04-04T09:15:46.807Z,49.75
2019-04-04T09:16:46.804Z,48.43
2019-04-04T09:17:46.783Z,47.82
2019-04-04T09:18:46.793Z,48.43
2019-04-04T09:19:46.755Z,49.24
2019-04-04T09:20:46.742Z,49.34
2019-04-04T09:21:46.789Z,48.13
2019-04-04T09:22:46.723Z,49.02
2019-04-04T09:23:46.739Z,48.41
2019-04-04T09:24:46.698Z,48.41
2019-04-04T09:25:46.690Z,48.91
2019-04-04T09:26:46.677Z,48.31
2019-04-04T09:27:46.661Z,48.41
2019-04-04T09:28:46.684Z,48.21
2019-04-04T09:29:46.643Z,48.31
2019-04-04T09:30:46.628Z,48.41
2019-04-04T09:31:46.647Z,48.39
2019-04-04T09:32:46.615Z,47.78
2019-04-04T09:33:46.645Z,49.02
2019-04-04T09:34:46.588Z,47.67
2019-04-04T09:35:46.578Z,47.27
2019-04-04T09:36:46.559Z,48.08
2019-04-04T09:37:46.556Z,47.47
2019-04-04T09:38:46.594Z,47.25
2019-04-04T09:39:46.532Z,47.86
2019-04-04T09:40:46.518Z,48.06
2019-04-04T09:41:46.506Z,47.45
2019-04-04T09:42:46.502Z,47.45
2019-04-04T09:43:46.488Z,47.75
2019-04-04T09:44:46.517Z,47.55
2019-04-04T09:45:46.490Z,47.45
2019-04-04T09:46:46.458Z,47.75
2019-04-04T09:47:46.480Z,47.53
2019-04-04T09:48:46.431Z,46.92
2019-04-04T09:49:46.426Z,47.33
2019-04-04T09:50:46.404Z,47.63
2019-04-04T09:51:46.392Z,46.83
2019-04-04T09:52:46.434Z,46.22
2019-04-04T09:53:53.248Z,46.72
2019-04-04T09:54:47.392Z,46.32
2019-04-04T09:55:46.359Z,46.42
2019-04-04T09:56:46.360Z,46.70
2019-04-04T09:57:46.804Z,47.00
2019-04-04T09:58:46.317Z,46.30
2019-04-04T09:59:46.324Z,46.30
2019-04-04T10:00:46.300Z,46.50
2019-04-04T10:01:46.288Z,46.09
2019-04-04T10:02:46.281Z,46.78
2019-04-04T10:03:46.308Z,44.56
2019-04-04T10:04:46.245Z,45.67
2019-04-04T10:05:46.247Z,45.37
2019-04-04T10:06:46.223Z,46.28
2019-04-04T10:07:46.213Z,44.46
2019-04-04T10:08:46.212Z,45.45
2019-04-04T10:09:46.219Z,45.57
2019-04-04T10:10:46.180Z,45.57
2019-04-04T10:11:46.167Z,45.14
2019-04-04T10:12:46.167Z,44.54
2019-04-04T10:13:46.171Z,44.74
2019-04-04T10:14:46.133Z,44.74
2019-04-04T10:15:46.129Z,44.54
2019-04-04T10:16:46.187Z,44.94
2019-04-04T10:17:49.115Z,43.23
2019-04-04T10:18:46.095Z,44.11
2019-04-04T10:19:46.083Z,44.51
2019-04-04T10:20:46.069Z,43.51
2019-04-04T10:21:46.063Z,43.91
2019-04-04T10:22:46.072Z,43.48
2019-04-04T10:23:46.059Z,43.59
2019-04-04T10:24:46.047Z,43.38
2019-04-04T10:25:46.021Z,42.27
2019-04-04T10:26:46.005Z,43.38
2019-04-04T10:27:45.994Z,43.91
2019-04-04T10:28:46.004Z,43.28
2019-04-04T10:29:45.992Z,43.48
2019-04-04T10:30:45.960Z,43.79
2019-04-04T10:31:45.967Z,43.18
2019-04-04T10:32:45.944Z,42.96
2019-04-04T10:33:45.936Z,42.96
2019-04-04T10:34:45.992Z,42.35
2019-04-04T10:35:45.899Z,43.38
2019-04-04T10:36:45.887Z,42.15
2019-04-04T10:37:45.884Z,42.96
2019-04-04T10:38:45.865Z,43.66
2019-04-04T10:39:45.861Z,42.76
2019-04-04T10:40:46.267Z,42.76
2019-04-04T10:41:45.838Z,42.86
2019-04-04T10:42:45.840Z,42.25
2019-04-04T10:43:45.841Z,43.14
2019-04-04T10:44:45.839Z,42.33
2019-04-04T10:45:45.822Z,42.13
2019-04-04T10:46:45.785Z,42.74
2019-04-04T10:47:45.768Z,42.13
2019-04-04T10:48:45.785Z,43.65
2019-04-04T10:49:45.767Z,43.54
2019-04-04T10:50:45.769Z,43.52
2019-04-04T10:51:45.718Z,42.21
2019-04-04T10:52:45.709Z,42.13
2019-04-04T10:53:45.711Z,42.21
2019-04-04T10:54:45.696Z,42.01
2019-04-04T10:55:45.690Z,42.61
2019-04-04T10:56:45.694Z,42.11
2019-04-04T10:57:45.663Z,41.61
2019-04-04T10:58:45.648Z,41.71
2019-04-04T10:59:45.636Z,41.71
2019-04-04T11:00:45.625Z,41.81
2019-04-04T11:01:45.635Z,41.71
2019-04-04T11:02:45.604Z,41.31
2019-04-04T11:03:45.591Z,41.11
2019-04-04T11:04:45.577Z,41.39
2019-04-04T11:05:45.580Z,41.59
2019-04-04T11:06:46.307Z,41.49
2019-04-04T11:07:45.548Z,41.79
2019-04-04T11:08:45.532Z,41.99
2019-04-04T11:09:45.534Z,41.39
2019-04-04T11:10:45.510Z,42.19
2019-04-04T11:11:45.503Z,42.19
2019-04-04T11:12:45.515Z,41.79
2019-04-04T11:13:45.476Z,41.69
2019-04-04T11:14:45.470Z,42.19
2019-04-04T11:15:45.459Z,41.39
2019-04-04T11:16:45.445Z,41.09
2019-04-04T11:17:45.449Z,41.57
2019-04-04T11:18:45.423Z,41.39
2019-04-04T11:19:45.415Z,40.48
2019-04-04T11:20:45.400Z,41.09
2019-04-04T11:21:45.383Z,40.36
2019-04-04T11:22:45.409Z,40.06
2019-04-04T11:23:45.364Z,40.36
2019-04-04T11:24:45.359Z,39.86
2019-04-04T11:25:45.341Z,39.65
2019-04-04T11:26:45.336Z,40.04
2019-04-04T11:27:45.348Z,39.96
2019-04-04T11:28:45.308Z,40.06
2019-04-04T11:29:45.304Z,39.84
2019-04-04T11:30:45.288Z,40.04
2019-04-04T11:31:45.281Z,39.74
2019-04-04T11:32:45.288Z,39.72
2019-04-04T11:33:45.250Z,39.84
2019-04-04T11:34:53.165Z,39.62
2019-04-04T11:35:46.232Z,39.42
2019-04-04T11:36:45.214Z,39.82
2019-04-04T11:37:45.207Z,38.81
2019-04-04T11:38:45.197Z,39.82
2019-04-04T11:39:54.427Z,38.60
2019-04-04T11:40:46.218Z,38.20
2019-04-04T11:41:45.164Z,39.20
2019-04-04T11:42:45.154Z,37.59
2019-04-04T11:43:45.145Z,37.59
2019-04-04T11:44:45.151Z,38.20
2019-04-04T11:45:45.172Z,38.29
2019-04-04T11:46:45.111Z,38.28
2019-04-04T11:47:45.099Z,38.07
2019-04-04T11:48:45.101Z,38.68
2019-04-04T11:49:45.072Z,38.78
2019-04-04T11:50:45.066Z,38.28
2019-04-04T11:51:45.125Z,38.16
2019-04-04T11:52:45.045Z,37.96
2019-04-04T11:53:45.025Z,37.65
2019-04-04T11:54:45.019Z,37.76
2019-04-04T11:55:45.004Z,37.65
2019-04-04T11:56:44.999Z,37.55
2019-04-04T11:57:45.022Z,37.35
2019-04-04T11:58:44.976Z,37.96
2019-04-04T11:59:44.958Z,37.26
2019-04-04T12:00:45.046Z,37.85
2019-04-04T12:01:44.942Z,37.17
2019-04-04T12:02:44.934Z,37.15
2019-04-04T12:03:44.923Z,37.46
2019-04-04T12:04:44.900Z,37.55
2019-04-04T12:05:44.900Z,37.76
2019-04-04T12:06:44.912Z,37.65
2019-04-04T12:07:44.874Z,37.46
2019-04-04T12:08:44.854Z,37.65
2019-04-04T12:09:44.848Z,37.65
2019-04-04T12:10:44.864Z,37.55
2019-04-04T12:11:44.822Z,38.16
2019-04-04T12:12:44.828Z,37.96
2019-04-04T12:13:44.811Z,37.65
2019-04-04T12:14:44.818Z,37.63
2019-04-04T12:15:44.788Z,37.34
2019-04-04T12:16:44.770Z,37.63
2019-04-04T12:17:44.760Z,37.15
2019-04-04T12:18:44.748Z,36.54
2019-04-04T12:19:44.762Z,37.04
2019-04-04T12:20:44.721Z,35.93
2019-04-04T12:21:44.739Z,37.34
2019-04-04T12:22:44.704Z,37.15
2019-04-04T12:23:44.701Z,37.46
2019-04-04T12:24:44.698Z,37.35
2019-04-04T12:25:44.700Z,37.46
2019-04-04T12:26:44.658Z,37.47
2019-04-04T12:27:44.685Z,37.26
2019-04-04T12:28:44.641Z,37.26
2019-04-04T12:29:44.633Z,37.24
2019-04-04T12:30:44.615Z,35.93
2019-04-04T12:31:44.625Z,35.93
2019-04-04T12:32:44.594Z,36.23
2019-04-04T12:33:44.590Z,36.03
2019-04-04T12:34:44.601Z,36.23
2019-04-04T12:35:44.563Z,36.41
2019-04-04T12:36:44.582Z,36.61
2019-04-04T12:37:44.537Z,37.60
2019-04-04T12:38:44.521Z,36.82
2019-04-04T12:39:44.649Z,36.20
2019-04-04T12:40:44.496Z,35.60
2019-04-04T12:41:44.520Z,36.20
2019-04-04T12:42:44.485Z,36.20
2019-04-04T12:43:44.470Z,36.70
2019-04-04T12:44:44.504Z,35.68
2019-04-04T12:45:44.473Z,36.68
2019-04-04T12:46:44.463Z,35.68
2019-04-04T12:47:44.433Z,36.08
2019-04-04T12:48:44.414Z,35.08
2019-04-04T12:49:44.397Z,36.16
2019-04-04T12:50:44.418Z,36.18
2019-04-04T12:51:44.381Z,35.98
2019-04-04T12:52:44.408Z,36.26